sensor_id;sensor_type;location;lat;lon;timestamp;pressure;altitude;pressure_sealevel;temperature;humidity
38939;BME280;24211;49.980;19.776;2023-04-20T00:00:26;99495.72;;;9.52;100.00
38939;BME280;24211;49.980;19.776;2023-04-20T00:03:13;99497.56;;;9.52;100.00
38939;BME280;24211;49.980;19.776;2023-04-20T00:05:41;99499.41;;;9.51;100.00
38939;BME280;24211;49.980;19.776;2023-04-20T00:08:09;99500.22;;;9.52;100.00
38939;BME280;24211;49.980;19.776;2023-04-20T00:10:36;99494.06;;;9.51;100.00
38939;BME280;24211;49.980;19.776;2023-04-20T00:13:03;99495.13;;;9.50;100.00
38939;BME280;24211;49.980;19.776;2023-04-20T00:15:32;99493.28;;;9.51;100.00
38939;BME280;24211;49.980;19.776;2023-04-20T00:17:59;99480.13;;;9.49;100.00
38939;BME280;24211;49.980;19.776;2023-04-20T00:20:27;99478.28;;;9.50;100.00
38939;BME280;24211;49.980;19.776;2023-04-20T00:22:55;99481.78;;;9.50;100.00
38939;BME280;24211;49.980;19.776;2023-04-20T00:25:23;99481.97;;;9.49;100.00
38939;BME280;24211;49.980;19.776;2023-04-20T00:27:50;99475.03;;;9.48;100.00
38939;BME280;24211;49.980;19.776;2023-04-20T00:30:17;99478.50;;;9.48;100.00
38939;BME280;24211;49.980;19.776;2023-04-20T00:32:44;99479.75;;;9.46;100.00
38939;BME280;24211;49.980;19.776;2023-04-20T00:35:13;99473.38;;;9.47;100.00
38939;BME280;24211;49.980;19.776;2023-04-20T00:37:40;99476.03;;;9.47;100.00
38939;BME280;24211;49.980;19.776;2023-04-20T00:40:08;99470.72;;;9.47;100.00
38939;BME280;24211;49.980;19.776;2023-04-20T00:42:36;99479.75;;;9.46;100.00
38939;BME280;24211;49.980;19.776;2023-04-20T00:45:04;99481.38;;;9.47;100.00
38939;BME280;24211;49.980;19.776;2023-04-20T00:47:31;99474.44;;;9.46;100.00
38939;BME280;24211;49.980;19.776;2023-04-20T00:50:02;99485.47;;;9.49;100.00
38939;BME280;24211;49.980;19.776;2023-04-20T00:52:31;99481.34;;;9.53;100.00
38939;BME280;24211;49.980;19.776;2023-04-20T00:54:58;99481.56;;;9.52;100.00
38939;BME280;24211;49.980;19.776;2023-04-20T00:57:27;99475.19;;;9.53;100.00
38939;BME280;24211;49.980;19.776;2023-04-20T00:59:54;99479.72;;;9.52;100.00
38939;BME280;24211;49.980;19.776;2023-04-20T01:02:21;99485.06;;;9.52;100.00
38939;BME280;24211;49.980;19.776;2023-04-20T01:04:49;99487.94;;;9.51;100.00
38939;BME280;24211;49.980;19.776;2023-04-20T01:07:16;99483.63;;;9.50;100.00
38939;BME280;24211;49.980;19.776;2023-04-20T01:09:44;99483.84;;;9.48;100.00
38939;BME280;24211;49.980;19.776;2023-04-20T01:12:11;99481.97;;;9.49;100.00
38939;BME280;24211;49.980;19.776;2023-04-20T01:14:39;99488.38;;;9.48;100.00
38939;BME280;24211;49.980;19.776;2023-04-20T01:17:06;99479.31;;;9.49;100.00
38939;BME280;24211;49.980;19.776;2023-04-20T01:19:34;99488.38;;;9.48;100.00
38939;BME280;24211;49.980;19.776;2023-04-20T01:22:01;99492.03;;;9.47;100.00
38939;BME280;24211;49.980;19.776;2023-04-20T01:24:29;99487.75;;;9.46;100.00
38939;BME280;24211;49.980;19.776;2023-04-20T01:26:58;99486.13;;;9.45;100.00
38939;BME280;24211;49.980;19.776;2023-04-20T01:29:26;99487.13;;;9.44;100.00
38939;BME280;24211;49.980;19.776;2023-04-20T01:31:54;99479.34;;;9.42;100.00
38939;BME280;24211;49.980;19.776;2023-04-20T01:34:21;99484.47;;;9.44;100.00
38939;BME280;24211;49.980;19.776;2023-04-20T01:36:48;99485.50;;;9.43;100.00
38939;BME280;24211;49.980;19.776;2023-04-20T01:39:16;99482.03;;;9.42;100.00
38939;BME280;24211;49.980;19.776;2023-04-20T01:41:44;99483.88;;;9.42;100.00
38939;BME280;24211;49.980;19.776;2023-04-20T01:44:11;99478.53;;;9.42;100.00
38939;BME280;24211;49.980;19.776;2023-04-20T01:46:39;99482.25;;;9.41;100.00
38939;BME280;24211;49.980;19.776;2023-04-20T01:49:07;99480.59;;;9.40;100.00
38939;BME280;24211;49.980;19.776;2023-04-20T01:51:35;99473.63;;;9.39;100.00
38939;BME280;24211;49.980;19.776;2023-04-20T01:54:03;99472.81;;;9.38;100.00
38939;BME280;24211;49.980;19.776;2023-04-20T01:56:30;99485.34;;;9.38;100.00
38939;BME280;24211;49.980;19.776;2023-04-20T01:58:57;99473.63;;;9.39;100.00
38939;BME280;24211;49.980;19.776;2023-04-20T02:01:29;99472.81;;;9.38;100.00
38939;BME280;24211;49.980;19.776;2023-04-20T02:03:57;99484.28;;;9.39;100.00
38939;BME280;24211;49.980;19.776;2023-04-20T02:06:24;99477.34;;;9.38;100.00
38939;BME280;24211;49.980;19.776;2023-04-20T02:08:52;99488.00;;;9.38;100.00
38939;BME280;24211;49.980;19.776;2023-04-20T02:11:19;99486.34;;;9.37;100.00
38939;BME280;24211;49.980;19.776;2023-04-20T02:13:48;99477.75;;;9.35;100.00
38939;BME280;24211;49.980;19.776;2023-04-20T02:16:16;99481.44;;;9.34;100.00
38939;BME280;24211;49.980;19.776;2023-04-20T02:18:45;99474.72;;;9.31;100.00
38939;BME280;24211;49.980;19.776;2023-04-20T02:21:13;99478.16;;;9.32;100.00
38939;BME280;24211;49.980;19.776;2023-04-20T02:23:40;99483.50;;;9.32;100.00
38939;BME280;24211;49.980;19.776;2023-04-20T02:26:07;99476.56;;;9.31;100.00
38939;BME280;24211;49.980;19.776;2023-04-20T02:28:34;99471.41;;;9.29;100.00
38939;BME280;24211;49.980;19.776;2023-04-20T02:31:04;99473.69;;;9.26;100.00
38939;BME280;24211;49.980;19.776;2023-04-20T02:33:31;99477.38;;;9.25;100.00
38939;BME280;24211;49.980;19.776;2023-04-20T02:35:59;99479.44;;;9.23;100.00
38939;BME280;24211;49.980;19.776;2023-04-20T02:38:27;99479.44;;;9.23;100.00
38939;BME280;24211;49.980;19.776;2023-04-20T02:40:54;99477.81;;;9.21;100.00
38939;BME280;24211;49.980;19.776;2023-04-20T02:43:21;99481.50;;;9.20;100.00
38939;BME280;24211;49.980;19.776;2023-04-20T02:45:49;99479.88;;;9.19;100.00
38939;BME280;24211;49.980;19.776;2023-04-20T02:48:19;99480.69;;;9.20;100.00
38939;BME280;24211;49.980;19.776;2023-04-20T02:50:46;99480.09;;;9.18;100.00
38939;BME280;24211;49.980;19.776;2023-04-20T02:53:22;99489.31;;;9.15;100.00
38939;BME280;24211;49.980;19.776;2023-04-20T02:55:57;99488.13;;;9.11;100.00
38939;BME280;24211;49.980;19.776;2023-04-20T02:58:39;99484.41;;;9.12;100.00
38939;BME280;24211;49.980;19.776;2023-04-20T03:01:27;99484.41;;;9.12;100.00
38939;BME280;24211;49.980;19.776;2023-04-20T03:04:03;99489.75;;;9.12;100.00
38939;BME280;24211;49.980;19.776;2023-04-20T03:06:35;99486.47;;;9.10;100.00
38939;BME280;24211;49.980;19.776;2023-04-20T03:09:07;99479.91;;;9.13;100.00
38939;BME280;24211;49.980;19.776;2023-04-20T03:11:53;99487.25;;;9.17;100.00
38939;BME280;24211;49.980;19.776;2023-04-20T03:14:41;99480.72;;;9.13;100.00
38939;BME280;24211;49.980;19.776;2023-04-20T03:17:09;99482.34;;;9.14;100.00
38939;BME280;24211;49.980;19.776;2023-04-20T03:19:36;99486.06;;;9.13;100.00
38939;BME280;24211;49.980;19.776;2023-04-20T03:22:04;99487.69;;;9.14;100.00
38939;BME280;24211;49.980;19.776;2023-04-20T03:24:34;99493.00;;;9.14;100.00
38939;BME280;24211;49.980;19.776;2023-04-20T03:27:10;99493.84;;;9.15;100.00
38939;BME280;24211;49.980;19.776;2023-04-20T03:30:00;99492.00;;;9.15;100.00
38939;BME280;24211;49.980;19.776;2023-04-20T03:32:28;99490.16;;;9.16;100.00
38939;BME280;24211;49.980;19.776;2023-04-20T03:34:59;99496.28;;;9.16;100.00
38939;BME280;24211;49.980;19.776;2023-04-20T03:37:26;99493.84;;;9.15;100.00
38939;BME280;24211;49.980;19.776;2023-04-20T03:39:53;99498.34;;;9.14;100.00
38939;BME280;24211;49.980;19.776;2023-04-20T03:42:21;99506.16;;;9.16;100.00
38939;BME280;24211;49.980;19.776;2023-04-20T03:44:48;99510.66;;;9.15;100.00
38939;BME280;24211;49.980;19.776;2023-04-20T03:47:15;99505.31;;;9.15;100.00
38939;BME280;24211;49.980;19.776;2023-04-20T03:49:43;99505.31;;;9.15;100.00
38939;BME280;24211;49.980;19.776;2023-04-20T03:52:11;99496.72;;;9.13;100.00
38939;BME280;24211;49.980;19.776;2023-04-20T03:54:39;99497.53;;;9.14;100.00
38939;BME280;24211;49.980;19.776;2023-04-20T03:57:06;99503.69;;;9.14;100.00
38939;BME280;24211;49.980;19.776;2023-04-20T03:59:34;99500.00;;;9.15;100.00
38939;BME280;24211;49.980;19.776;2023-04-20T04:02:03;99498.34;;;9.14;100.00
38939;BME280;24211;49.980;19.776;2023-04-20T04:04:32;99500.00;;;9.15;100.00
38939;BME280;24211;49.980;19.776;2023-04-20T04:07:00;99499.16;;;9.15;100.00
38939;BME280;24211;49.980;19.776;2023-04-20T04:09:27;99510.66;;;9.15;100.00
38939;BME280;24211;49.980;19.776;2023-04-20T04:11:54;99509.41;;;9.18;100.00
38939;BME280;24211;49.980;19.776;2023-04-20T04:14:23;99510.25;;;9.18;100.00
38939;BME280;24211;49.980;19.776;2023-04-20T04:16:51;99508.19;;;9.20;100.00
38939;BME280;24211;49.980;19.776;2023-04-20T04:19:19;99506.53;;;9.19;100.00
38939;BME280;24211;49.980;19.776;2023-04-20T04:21:46;99512.09;;;9.18;100.00
38939;BME280;24211;49.980;19.776;2023-04-20T04:24:15;99518.25;;;9.18;100.00
38939;BME280;24211;49.980;19.776;2023-04-20T04:27:05;99511.88;;;9.19;100.00
38939;BME280;24211;49.980;19.776;2023-04-20T04:29:38;99506.94;;;9.16;100.00
38939;BME280;24211;49.980;19.776;2023-04-20T04:32:12;99517.19;;;9.19;100.00
38939;BME280;24211;49.980;19.776;2023-04-20T04:34:40;99519.66;;;9.21;100.00
38939;BME280;24211;49.980;19.776;2023-04-20T04:37:11;99525.00;;;9.21;100.00
38939;BME280;24211;49.980;19.776;2023-04-20T04:39:43;99524.19;;;9.20;100.00
38939;BME280;24211;49.980;19.776;2023-04-20T04:42:22;99528.47;;;9.21;100.00
38939;BME280;24211;49.980;19.776;2023-04-20T04:44:50;99533.38;;;9.25;100.00
38939;BME280;24211;49.980;19.776;2023-04-20T04:47:25;99533.97;;;9.27;100.00
38939;BME280;24211;49.980;19.776;2023-04-20T04:49:55;99534.63;;;9.29;100.00
38939;BME280;24211;49.980;19.776;2023-04-20T04:52:23;99535.22;;;9.31;100.00
38939;BME280;24211;49.980;19.776;2023-04-20T04:54:50;99537.66;;;9.32;100.00
38939;BME280;24211;49.980;19.776;2023-04-20T04:57:18;99538.50;;;9.33;100.00
38939;BME280;24211;49.980;19.776;2023-04-20T04:59:45;99534.78;;;9.34;100.00
38939;BME280;24211;49.980;19.776;2023-04-20T05:02:13;99528.19;;;9.36;100.00
38939;BME280;24211;49.980;19.776;2023-04-20T05:04:40;99531.50;;;9.38;100.00
38939;BME280;24211;49.980;19.776;2023-04-20T05:07:08;99532.28;;;9.39;100.00
38939;BME280;24211;49.980;19.776;2023-04-20T05:09:37;99535.59;;;9.41;100.00
38939;BME280;24211;49.980;19.776;2023-04-20T05:12:05;99536.19;;;9.43;100.00
38939;BME280;24211;49.980;19.776;2023-04-20T05:14:33;99529.81;;;9.44;100.00
38939;BME280;24211;49.980;19.776;2023-04-20T05:17:01;99536.78;;;9.45;100.00
38939;BME280;24211;49.980;19.776;2023-04-20T05:19:28;99541.72;;;9.48;100.00
38939;BME280;24211;49.980;19.776;2023-04-20T05:21:56;99545.59;;;9.52;100.00
38939;BME280;24211;49.980;19.776;2023-04-20T05:24:23;99545.78;;;9.57;100.00
38939;BME280;24211;49.980;19.776;2023-04-20T05:26:50;99557.22;;;9.64;100.00
38939;BME280;24211;49.980;19.776;2023-04-20T05:29:18;99561.91;;;9.68;100.00
38939;BME280;24211;49.980;19.776;2023-04-20T05:31:45;99565.00;;;9.72;100.00
38939;BME280;24211;49.980;19.776;2023-04-20T05:34:13;99567.25;;;9.75;100.00
38939;BME280;24211;49.980;19.776;2023-04-20T05:36:40;99558.00;;;9.77;100.00
38939;BME280;24211;49.980;19.776;2023-04-20T05:39:07;99565.34;;;9.82;100.00
38939;BME280;24211;49.980;19.776;2023-04-20T05:41:35;99568.63;;;9.84;100.00
38939;BME280;24211;49.980;19.776;2023-04-20T05:44:03;99569.03;;;9.88;100.00
38939;BME280;24211;49.980;19.776;2023-04-20T05:46:30;99558.72;;;9.91;100.00
38939;BME280;24211;49.980;19.776;2023-04-20T05:48:57;99562.59;;;9.95;100.00
38939;BME280;24211;49.980;19.776;2023-04-20T05:51:24;99565.66;;;9.99;100.00
38939;BME280;24211;49.980;19.776;2023-04-20T05:53:55;99562.34;;;10.03;100.00
38939;BME280;24211;49.980;19.776;2023-04-20T05:56:22;99561.94;;;10.06;100.00
38939;BME280;24211;49.980;19.776;2023-04-20T05:58:49;99562.72;;;10.13;100.00
38939;BME280;24211;49.980;19.776;2023-04-20T06:01:17;99564.75;;;10.18;100.00
38939;BME280;24211;49.980;19.776;2023-04-20T06:03:45;99561.41;;;10.22;100.00
38939;BME280;24211;49.980;19.776;2023-04-20T06:06:14;99560.56;;;10.28;100.00
38939;BME280;24211;49.980;19.776;2023-04-20T06:08:43;99560.50;;;10.35;100.00
38939;BME280;24211;49.980;19.776;2023-04-20T06:11:10;99569.09;;;10.43;100.00
38939;BME280;24211;49.980;19.776;2023-04-20T06:13:37;99564.50;;;10.50;100.00
38939;BME280;24211;49.980;19.776;2023-04-20T06:16:05;99562.00;;;10.56;100.00
38939;BME280;24211;49.980;19.776;2023-04-20T06:18:36;99559.84;;;10.64;100.00
38939;BME280;24211;49.980;19.776;2023-04-20T06:21:03;99557.75;;;10.73;100.00
38939;BME280;24211;49.980;19.776;2023-04-20T06:23:31;99555.81;;;10.80;100.00
38939;BME280;24211;49.980;19.776;2023-04-20T06:25:58;99560.06;;;10.87;100.00
38939;BME280;24211;49.980;19.776;2023-04-20T06:28:25;99548.03;;;10.96;100.00
38939;BME280;24211;49.980;19.776;2023-04-20T06:30:52;99551.25;;;11.05;100.00
38939;BME280;24211;49.980;19.776;2023-04-20T06:33:20;99557.13;;;11.13;100.00
38939;BME280;24211;49.980;19.776;2023-04-20T06:35:47;99560.31;;;11.22;100.00
38939;BME280;24211;49.980;19.776;2023-04-20T06:38:14;99551.19;;;11.30;100.00
38939;BME280;24211;49.980;19.776;2023-04-20T06:40:41;99544.72;;;11.37;100.00
38939;BME280;24211;49.980;19.776;2023-04-20T06:43:09;99553.03;;;11.47;100.00
38939;BME280;24211;49.980;19.776;2023-04-20T06:45:36;99548.56;;;11.59;100.00
38939;BME280;24211;49.980;19.776;2023-04-20T06:48:04;99543.94;;;11.66;100.00
38939;BME280;24211;49.980;19.776;2023-04-20T06:50:31;99547.13;;;11.75;100.00
38939;BME280;24211;49.980;19.776;2023-04-20T06:53:00;99546.00;;;11.82;100.00
38939;BME280;24211;49.980;19.776;2023-04-20T06:55:28;99551.41;;;11.94;100.00
38939;BME280;24211;49.980;19.776;2023-04-20T06:57:55;99547.97;;;12.05;100.00
38939;BME280;24211;49.980;19.776;2023-04-20T07:00:22;99560.94;;;12.20;100.00
38939;BME280;24211;49.980;19.776;2023-04-20T07:02:50;99558.97;;;12.38;100.00
38939;BME280;24211;49.980;19.776;2023-04-20T07:05:18;99560.75;;;12.56;100.00
38939;BME280;24211;49.980;19.776;2023-04-20T07:07:46;99563.81;;;12.71;100.00
38939;BME280;24211;49.980;19.776;2023-04-20T07:10:14;99565.22;;;12.85;100.00
38939;BME280;24211;49.980;19.776;2023-04-20T07:12:42;99574.34;;;13.07;100.00
38939;BME280;24211;49.980;19.776;2023-04-20T07:15:11;99563.81;;;13.18;100.00
38939;BME280;24211;49.980;19.776;2023-04-20T07:17:39;99569.41;;;13.28;100.00
38939;BME280;24211;49.980;19.776;2023-04-20T07:20:07;99575.78;;;13.50;100.00
38939;BME280;24211;49.980;19.776;2023-04-20T07:22:37;99561.34;;;13.79;100.00
38939;BME280;24211;49.980;19.776;2023-04-20T07:25:07;99567.69;;;14.01;100.00
38939;BME280;24211;49.980;19.776;2023-04-20T07:27:39;99569.16;;;14.09;100.00
38939;BME280;24211;49.980;19.776;2023-04-20T07:30:09;99558.25;;;14.15;100.00
38939;BME280;24211;49.980;19.776;2023-04-20T07:32:38;99557.88;;;14.23;100.00
38939;BME280;24211;49.980;19.776;2023-04-20T07:35:07;99562.16;;;14.36;100.00
38939;BME280;24211;49.980;19.776;2023-04-20T07:37:35;99559.91;;;14.45;100.00
38939;BME280;24211;49.980;19.776;2023-04-20T07:40:03;99558.59;;;14.64;100.00
38939;BME280;24211;49.980;19.776;2023-04-20T07:42:34;99561.00;;;14.82;100.00
38939;BME280;24211;49.980;19.776;2023-04-20T07:45:05;99555.63;;;14.98;100.00
38939;BME280;24211;49.980;19.776;2023-04-20T07:47:33;99559.19;;;15.04;100.00
38939;BME280;24211;49.980;19.776;2023-04-20T07:50:02;99558.22;;;15.10;100.00
38939;BME280;24211;49.980;19.776;2023-04-20T07:52:29;99555.09;;;15.18;100.00
38939;BME280;24211;49.980;19.776;2023-04-20T07:54:56;99560.59;;;15.28;100.00
38939;BME280;24211;49.980;19.776;2023-04-20T07:57:27;99560.00;;;15.43;100.00
38939;BME280;24211;49.980;19.776;2023-04-20T07:59:54;99566.91;;;15.55;100.00
38939;BME280;24211;49.980;19.776;2023-04-20T08:02:22;99557.56;;;15.63;100.00
38939;BME280;24211;49.980;19.776;2023-04-20T08:04:49;99561.16;;;15.68;100.00
38939;BME280;24211;49.980;19.776;2023-04-20T08:07:18;99558.84;;;15.77;100.00
38939;BME280;24211;49.980;19.776;2023-04-20T08:09:45;99556.28;;;15.92;100.00
38939;BME280;24211;49.980;19.776;2023-04-20T08:12:12;99555.91;;;16.05;100.00
38939;BME280;24211;49.980;19.776;2023-04-20T08:14:39;99560.56;;;16.15;100.00
38939;BME280;24211;49.980;19.776;2023-04-20T08:17:07;99561.44;;;16.20;100.00
38939;BME280;24211;49.980;19.776;2023-04-20T08:19:34;99555.56;;;16.23;100.00
38939;BME280;24211;49.980;19.776;2023-04-20T08:22:04;99561.28;;;16.32;100.00
38939;BME280;24211;49.980;19.776;2023-04-20T08:24:31;99560.78;;;16.35;100.00
38939;BME280;24211;49.980;19.776;2023-04-20T08:26:58;99561.59;;;16.35;100.00
38939;BME280;24211;49.980;19.776;2023-04-20T08:29:27;99567.59;;;16.43;100.00
38939;BME280;24211;49.980;19.776;2023-04-20T08:31:54;99569.00;;;16.50;100.00
38939;BME280;24211;49.980;19.776;2023-04-20T08:34:21;99566.97;;;16.62;100.00
38939;BME280;24211;49.980;19.776;2023-04-20T08:36:49;99566.50;;;16.70;100.00
38939;BME280;24211;49.980;19.776;2023-04-20T08:39:20;99566.78;;;16.74;100.00
38939;BME280;24211;49.980;19.776;2023-04-20T08:41:50;99576.28;;;16.81;100.00
38939;BME280;24211;49.980;19.776;2023-04-20T08:44:22;99571.41;;;16.78;100.00
38939;BME280;24211;49.980;19.776;2023-04-20T08:46:50;99564.91;;;16.74;100.00
38939;BME280;24211;49.980;19.776;2023-04-20T08:49:18;99566.59;;;16.80;100.00
38939;BME280;24211;49.980;19.776;2023-04-20T08:51:47;99564.13;;;16.79;100.00
38939;BME280;24211;49.980;19.776;2023-04-20T08:54:15;99567.34;;;16.76;100.00
38939;BME280;24211;49.980;19.776;2023-04-20T08:56:47;99564.91;;;16.74;100.00
38939;BME280;24211;49.980;19.776;2023-04-20T08:59:15;99570.09;;;16.81;100.00
38939;BME280;24211;49.980;19.776;2023-04-20T09:01:44;99573.06;;;16.79;100.00
38939;BME280;24211;49.980;19.776;2023-04-20T09:04:21;99573.06;;;16.79;100.00
38939;BME280;24211;49.980;19.776;2023-04-20T09:06:52;99562.25;;;16.79;100.00
38939;BME280;24211;49.980;19.776;2023-04-20T09:09:22;99568.47;;;16.80;100.00
38939;BME280;24211;49.980;19.776;2023-04-20T09:12:02;99573.94;;;16.90;100.00
38939;BME280;24211;49.980;19.776;2023-04-20T09:14:44;99569.72;;;17.04;100.00
38939;BME280;24211;49.980;19.776;2023-04-20T09:17:14;99578.16;;;17.18;100.00
38939;BME280;24211;49.980;19.776;2023-04-20T09:19:51;99574.50;;;17.34;100.00
38939;BME280;24211;49.980;19.776;2023-04-20T09:22:34;99573.44;;;17.40;100.00
38939;BME280;24211;49.980;19.776;2023-04-20T09:25:17;99570.75;;;17.45;100.00
38939;BME280;24211;49.980;19.776;2023-04-20T09:27:59;99572.19;;;17.57;100.00
38939;BME280;24211;49.980;19.776;2023-04-20T09:30:42;99571.72;;;17.71;100.00
38939;BME280;24211;49.980;19.776;2023-04-20T09:33:11;99563.09;;;17.74;100.00
38939;BME280;24211;49.980;19.776;2023-04-20T09:35:42;99571.72;;;17.76;100.00
38939;BME280;24211;49.980;19.776;2023-04-20T09:38:14;99567.16;;;17.81;100.00
38939;BME280;24211;49.980;19.776;2023-04-20T09:40:42;99565.81;;;17.89;100.00
38939;BME280;24211;49.980;19.776;2023-04-20T09:43:17;99565.28;;;17.92;100.00
38939;BME280;24211;49.980;19.776;2023-04-20T09:45:45;99565.28;;;17.92;100.00
38939;BME280;24211;49.980;19.776;2023-04-20T09:48:13;99561.78;;;17.96;100.00
38939;BME280;24211;49.980;19.776;2023-04-20T09:50:45;99559.91;;;18.02;100.00
38939;BME280;24211;49.980;19.776;2023-04-20T09:53:17;99564.53;;;18.11;100.00
38939;BME280;24211;49.980;19.776;2023-04-20T09:55:49;99561.56;;;18.13;100.00
38939;BME280;24211;49.980;19.776;2023-04-20T09:58:19;99566.19;;;18.22;100.00
38939;BME280;24211;49.980;19.776;2023-04-20T10:00:47;99552.13;;;18.20;100.00
38939;BME280;24211;49.980;19.776;2023-04-20T10:03:17;99554.84;;;18.25;100.00
38939;BME280;24211;49.980;19.776;2023-04-20T10:05:45;99545.09;;;18.35;100.00
38939;BME280;24211;49.980;19.776;2023-04-20T10:08:12;99556.19;;;18.43;100.00
38939;BME280;24211;49.980;19.776;2023-04-20T10:10:48;99540.75;;;18.44;100.00
38939;BME280;24211;49.980;19.776;2023-04-20T10:13:16;99545.63;;;18.42;100.00
38939;BME280;24211;49.980;19.776;2023-04-20T10:15:45;99552.66;;;18.27;100.00
38939;BME280;24211;49.980;19.776;2023-04-20T10:18:22;99543.72;;;18.22;100.00
38939;BME280;24211;49.980;19.776;2023-04-20T10:21:06;99543.44;;;18.28;100.00
38939;BME280;24211;49.980;19.776;2023-04-20T10:23:50;99544.00;;;18.15;100.00
38939;BME280;24211;49.980;19.776;2023-04-20T10:26:18;99543.41;;;18.08;100.00
38939;BME280;24211;49.980;19.776;2023-04-20T10:28:46;99539.13;;;18.27;100.00
38939;BME280;24211;49.980;19.776;2023-04-20T10:31:14;99538.59;;;18.46;100.00
38939;BME280;24211;49.980;19.776;2023-04-20T10:33:54;99537.28;;;18.58;100.00
38939;BME280;24211;49.980;19.776;2023-04-20T10:36:27;99538.38;;;18.52;100.00
38939;BME280;24211;49.980;19.776;2023-04-20T10:38:56;99531.59;;;18.55;100.00
38939;BME280;24211;49.980;19.776;2023-04-20T10:41:24;99532.13;;;18.52;100.00
38939;BME280;24211;49.980;19.776;2023-04-20T10:43:51;99534.31;;;18.60;100.00
38939;BME280;24211;49.980;19.776;2023-04-20T10:46:22;99526.69;;;18.42;100.00
38939;BME280;24211;49.980;19.776;2023-04-20T10:48:55;99521.84;;;18.59;100.00
38939;BME280;24211;49.980;19.776;2023-04-20T10:51:24;99526.97;;;18.55;100.00
38939;BME280;24211;49.980;19.776;2023-04-20T10:54:07;99528.88;;;18.40;100.00
38939;BME280;24211;49.980;19.776;2023-04-20T10:59:21;99526.13;;;18.14;100.00
38939;BME280;24211;49.980;19.776;2023-04-20T11:01:50;99531.81;;;18.08;100.00
38939;BME280;24211;49.980;19.776;2023-04-20T11:04:29;99529.63;;;18.10;100.00
38939;BME280;24211;49.980;19.776;2023-04-20T11:07:09;99532.59;;;18.13;100.00
38939;BME280;24211;49.980;19.776;2023-04-20T11:09:40;99525.84;;;18.26;100.00
38939;BME280;24211;49.980;19.776;2023-04-20T11:12:11;99518.03;;;18.40;100.00
38939;BME280;24211;49.980;19.776;2023-04-20T11:14:53;99512.66;;;18.50;100.00
38939;BME280;24211;49.980;19.776;2023-04-20T11:17:35;99511.53;;;18.81;100.00
38939;BME280;24211;49.980;19.776;2023-04-20T11:20:11;99515.81;;;18.97;100.00
38939;BME280;24211;49.980;19.776;2023-04-20T11:22:40;99515.28;;;19.05;100.00
38939;BME280;24211;49.980;19.776;2023-04-20T11:25:10;99522.06;;;18.92;100.00
38939;BME280;24211;49.980;19.776;2023-04-20T11:27:40;99517.75;;;18.91;100.00
38939;BME280;24211;49.980;19.776;2023-04-20T11:30:09;99518.31;;;18.83;100.00
38939;BME280;24211;49.980;19.776;2023-04-20T11:32:37;99521.84;;;18.79;100.00
38939;BME280;24211;49.980;19.776;2023-04-20T11:35:08;99510.41;;;18.97;100.00
38939;BME280;24211;49.980;19.776;2023-04-20T11:37:50;99511.19;;;19.13;100.00
38939;BME280;24211;49.980;19.776;2023-04-20T11:40:19;99510.09;;;19.19;100.00
38939;BME280;24211;49.980;19.776;2023-04-20T11:42:47;99513.31;;;19.26;100.00
38939;BME280;24211;49.980;19.776;2023-04-20T11:45:14;99510.84;;;19.34;100.00
38939;BME280;24211;49.980;19.776;2023-04-20T11:47:41;99514.19;;;19.11;100.00
38939;BME280;24211;49.980;19.776;2023-04-20T11:50:09;99510.31;;;19.32;100.00
38939;BME280;24211;49.980;19.776;2023-04-20T11:52:37;99512.22;;;19.27;100.00
38939;BME280;24211;49.980;19.776;2023-04-20T11:55:05;99506.81;;;19.27;100.00
38939;BME280;24211;49.980;19.776;2023-04-20T11:57:33;99497.25;;;19.49;100.00
38939;BME280;24211;49.980;19.776;2023-04-20T12:00:01;99498.59;;;19.52;100.00
38939;BME280;24211;49.980;19.776;2023-04-20T12:02:39;99504.88;;;19.42;100.00
38939;BME280;24211;49.980;19.776;2023-04-20T12:05:08;99501.66;;;19.40;100.00
38939;BME280;24211;49.980;19.776;2023-04-20T12:07:35;99502.16;;;19.47;100.00
38939;BME280;24211;49.980;19.776;2023-04-20T12:10:03;99498.69;;;19.86;100.00
38939;BME280;24211;49.980;19.776;2023-04-20T12:12:31;99492.50;;;20.19;100.00
38939;BME280;24211;49.980;19.776;2023-04-20T12:14:58;99492.28;;;19.72;100.00
38939;BME280;24211;49.980;19.776;2023-04-20T12:17:25;99496.94;;;20.05;100.00
38939;BME280;24211;49.980;19.776;2023-04-20T12:19:53;99492.50;;;20.19;100.00
38939;BME280;24211;49.980;19.776;2023-04-20T12:22:20;99492.00;;;20.17;100.00
38939;BME280;24211;49.980;19.776;2023-04-20T12:24:47;99484.44;;;20.09;100.00
38939;BME280;24211;49.980;19.776;2023-04-20T12:27:14;99490.47;;;20.01;100.00
38939;BME280;24211;49.980;19.776;2023-04-20T12:29:42;99489.19;;;20.27;100.00
38939;BME280;24211;49.980;19.776;2023-04-20T12:32:09;99481.38;;;20.54;100.00
38939;BME280;24211;49.980;19.776;2023-04-20T12:34:37;99476.91;;;20.68;100.00
38939;BME280;24211;49.980;19.776;2023-04-20T12:37:04;99483.03;;;20.16;100.00
38939;BME280;24211;49.980;19.776;2023-04-20T12:39:31;99479.47;;;20.21;100.00
38939;BME280;24211;49.980;19.776;2023-04-20T12:41:58;99476.53;;;20.51;100.00
38939;BME280;24211;49.980;19.776;2023-04-20T12:44:26;99476.75;;;20.83;100.00
38939;BME280;24211;49.980;19.776;2023-04-20T12:46:53;99482.09;;;20.36;100.00
38939;BME280;24211;49.980;19.776;2023-04-20T12:49:20;99479.81;;;20.48;100.00
38939;BME280;24211;49.980;19.776;2023-04-20T12:51:47;99479.91;;;20.38;100.00
38939;BME280;24211;49.980;19.776;2023-04-20T12:54:15;99468.78;;;20.68;100.00
38939;BME280;24211;49.980;19.776;2023-04-20T12:56:46;99468.31;;;19.89;89.23
38939;BME280;24211;49.980;19.776;2023-04-20T12:59:14;99471.09;;;20.12;100.00